Time,TemperatureF,DewpointF,PressureIn,WindDirection,WindDirectionDegrees,WindSpeedMPH,WindSpeedGustMPH,Humidity,HourlyPrecipIn,Conditions,Clouds,dailyrainin,SoftwareType,DateUTC
2016-12-08 00:01:00,48.2,48.2,30.06,South,180,0.0,0.0,100,0.00,,,0.00,WUHU216WMR200,2016-12-08 05:01:00,
2016-12-08 00:06:00,48.2,48.2,30.06,South,180,0.0,0.0,100,0.00,,,0.00,WUHU216WMR200,2016-12-08 05:06:00,
2016-12-08 00:12:00,48.4,48.4,30.03,South,180,0.0,0.0,100,0.00,,,0.00,WUHU216WMR200,2016-12-08 05:12:00,
2016-12-08 00:17:00,48.4,48.4,30.03,South,180,0.0,0.0,100,0.00,,,0.00,WUHU216WMR200,2016-12-08 05:17:00,
2016-12-08 00:22:00,48.4,48.4,30.03,South,180,0.0,0.0,100,0.00,,,0.00,WUHU216WMR200,2016-12-08 05:22:00,
2016-12-08 00:26:00,48.4,48.4,30.03,South,180,0.0,0.0,100,0.00,,,0.00,WUHU216WMR200,2016-12-08 05:26:00,
2016-12-08 00:31:00,48.4,48.4,30.03,South,180,0.0,0.0,100,0.00,,,0.00,WUHU216WMR200,2016-12-08 05:31:00,
2016-12-08 00:36:00,48.2,48.2,30.03,South,180,0.0,0.0,100,0.00,,,0.00,WUHU216WMR200,2016-12-08 05:36:00,
2016-12-08 00:41:00,48.4,48.4,30.03,South,180,0.0,0.0,100,0.00,,,0.00,WUHU216WMR200,2016-12-08 05:41:00,
2016-12-08 00:47:00,48.4,48.4,30.03,South,180,0.0,0.0,100,0.00,,,0.00,WUHU216WMR200,2016-12-08 05:47:00,
2016-12-08 00:52:00,48.2,48.2,30.03,South,180,0.0,0.0,100,0.00,,,0.00,WUHU216WMR200,2016-12-08 05:52:00,
2016-12-08 00:56:00,48.2,48.2,30.03,South,180,0.0,0.0,100,0.00,,,0.00,WUHU216WMR200,2016-12-08 05:56:00,
2016-12-08 01:02:00,48.0,48.0,30.03,South,180,0.0,0.0,100,0.00,,,0.00,WUHU216WMR200,2016-12-08 06:02:00,
2016-12-08 01:07:00,48.0,48.0,30.03,South,180,0.0,0.0,100,0.00,,,0.00,WUHU216WMR200,2016-12-08 06:07:00,
2016-12-08 01:12:00,48.0,48.0,30.03,South,180,0.0,0.0,100,0.00,,,0.00,WUHU216WMR200,2016-12-08 06:12:00,
2016-12-08 01:17:00,48.0,48.0,30.03,South,180,0.0,0.0,100,0.00,,,0.00,WUHU216WMR200,2016-12-08 06:17:00,
2016-12-08 01:27:00,48.4,48.4,30.03,South,180,0.0,0.0,100,0.00,,,0.00,WUHU216WMR200,2016-12-08 06:27:00,
2016-12-08 01:44:00,48.4,48.4,30.03,South,180,0.0,0.0,100,0.00,,,0.00,WUHU216WMR200,2016-12-08 06:44:00,
2016-12-08 01:49:00,48.6,48.6,30.03,South,180,0.0,0.0,100,0.00,,,0.00,WUHU216WMR200,2016-12-08 06:49:00,
2016-12-08 01:54:00,48.6,48.6,30.03,South,180,0.0,0.0,100,0.00,,,0.00,WUHU216WMR200,2016-12-08 06:54:00,
2016-12-08 01:59:00,48.6,48.6,30.03,South,180,0.0,0.0,100,0.00,,,0.00,WUHU216WMR200,2016-12-08 06:59:00,
2016-12-08 02:04:00,48.6,48.6,30.03,South,180,0.0,0.0,100,0.00,,,0.00,WUHU216WMR200,2016-12-08 07:04:00,
2016-12-08 02:09:00,48.6,48.6,30.03,South,180,0.0,0.0,100,0.00,,,0.00,WUHU216WMR200,2016-12-08 07:09:00,
2016-12-08 02:14:00,48.6,48.6,30.03,South,180,0.0,0.0,100,0.00,,,0.00,WUHU216WMR200,2016-12-08 07:14:00,
2016-12-08 02:19:00,48.7,48.7,30.03,South,180,0.0,0.0,100,0.00,,,0.00,WUHU216WMR200,2016-12-08 07:19:00,
2016-12-08 02:24:00,48.7,48.7,30.03,South,180,0.0,0.0,100,0.00,,,0.00,WUHU216WMR200,2016-12-08 07:24:00,
2016-12-08 02:29:00,48.7,48.7,30.03,South,180,0.0,0.0,100,0.00,,,0.00,WUHU216WMR200,2016-12-08 07:29:00,
2016-12-08 02:34:00,48.9,48.9,30.03,South,180,0.0,0.0,100,0.00,,,0.00,WUHU216WMR200,2016-12-08 07:34:00,
2016-12-08 02:44:00,48.9,48.9,30.00,South,180,0.0,0.0,100,0.00,,,0.00,WUHU216WMR200,2016-12-08 07:44:00,
2016-12-08 02:49:00,49.1,49.1,30.00,South,180,0.0,0.0,100,0.00,,,0.00,WUHU216WMR200,2016-12-08 07:49:00,
2016-12-08 02:54:00,49.1,49.1,30.00,South,180,0.0,0.0,100,0.00,,,0.00,WUHU216WMR200,2016-12-08 07:54:00,
2016-12-08 02:59:00,49.1,49.1,30.03,South,180,0.0,0.0,100,0.00,,,0.00,WUHU216WMR200,2016-12-08 07:59:00,
2016-12-08 03:04:00,49.1,49.1,30.03,South,180,0.0,0.0,100,0.00,,,0.00,WUHU216WMR200,2016-12-08 08:04:00,
2016-12-08 03:09:00,49.1,49.1,30.03,South,180,0.0,0.0,100,0.00,,,0.00,WUHU216WMR200,2016-12-08 08:09:00,
2016-12-08 03:14:00,49.3,49.3,30.03,South,180,0.0,0.0,100,0.00,,,0.00,WUHU216WMR200,2016-12-08 08:14:00,
2016-12-08 03:19:00,49.3,49.3,30.03,South,180,0.0,0.0,100,0.00,,,0.00,WUHU216WMR200,2016-12-08 08:19:00,
2016-12-08 03:24:00,49.3,49.3,30.03,South,180,0.0,0.0,100,0.00,,,0.00,WUHU216WMR200,2016-12-08 08:24:00,
2016-12-08 03:29:00,49.3,49.3,30.00,South,180,0.0,0.0,100,0.00,,,0.00,WUHU216WMR200,2016-12-08 08:29:00,
2016-12-08 03:34:00,49.5,49.5,30.00,South,180,0.0,0.0,100,0.00,,,0.00,WUHU216WMR200,2016-12-08 08:34:00,
2016-12-08 03:39:00,49.5,49.5,30.00,South,180,0.0,0.0,100,0.00,,,0.00,WUHU216WMR200,2016-12-08 08:39:00,
2016-12-08 03:44:00,49.5,49.5,30.03,South,180,0.0,0.0,100,0.00,,,0.00,WUHU216WMR200,2016-12-08 08:44:00,
2016-12-08 03:49:00,49.5,49.5,30.03,South,180,0.0,0.0,100,0.00,,,0.00,WUHU216WMR200,2016-12-08 08:49:00,
2016-12-08 03:54:00,49.5,49.5,30.03,South,180,0.0,0.0,100,0.00,,,0.00,WUHU216WMR200,2016-12-08 08:54:00,
2016-12-08 03:59:00,49.5,49.5,30.00,South,180,0.0,0.0,100,0.00,,,0.00,WUHU216WMR200,2016-12-08 08:59:00,
2016-12-08 04:04:00,49.5,49.5,30.00,South,180,0.0,0.0,100,0.00,,,0.00,WUHU216WMR200,2016-12-08 09:04:00,
2016-12-08 04:09:00,49.5,49.5,30.00,South,180,0.0,0.0,100,0.00,,,0.00,WUHU216WMR200,2016-12-08 09:09:00,
2016-12-08 04:14:00,49.5,49.5,30.00,South,180,0.0,0.0,100,0.00,,,0.00,WUHU216WMR200,2016-12-08 09:14:00,
2016-12-08 04:24:00,49.5,49.5,30.00,South,180,0.0,0.0,100,0.00,,,0.00,WUHU216WMR200,2016-12-08 09:24:00,
2016-12-08 04:29:00,49.5,49.5,30.00,South,180,0.0,0.0,100,0.00,,,0.00,WUHU216WMR200,2016-12-08 09:29:00,
2016-12-08 04:34:00,49.5,49.5,30.00,South,180,0.0,0.0,100,0.00,,,0.00,WUHU216WMR200,2016-12-08 09:34:00,
2016-12-08 04:39:00,49.5,49.5,30.00,South,180,0.0,0.0,100,0.00,,,0.00,WUHU216WMR200,2016-12-08 09:39:00,
2016-12-08 04:44:00,49.5,49.5,30.00,South,180,0.0,0.0,100,0.00,,,0.00,WUHU216WMR200,2016-12-08 09:44:00,
2016-12-08 04:49:00,49.5,49.5,30.00,South,180,0.0,0.0,100,0.00,,,0.00,WUHU216WMR200,2016-12-08 09:49:00,
2016-12-08 04:54:00,49.5,49.5,30.00,South,180,0.0,0.0,100,0.00,,,0.00,WUHU216WMR200,2016-12-08 09:54:00,
2016-12-08 04:59:00,49.5,49.5,30.00,South,180,0.0,0.0,100,0.00,,,0.00,WUHU216WMR200,2016-12-08 09:59:00,
2016-12-08 05:04:00,49.6,49.6,30.00,South,180,0.0,0.0,100,0.00,,,0.00,WUHU216WMR200,2016-12-08 10:04:00,
2016-12-08 05:09:00,49.6,49.6,30.00,South,180,0.0,0.0,100,0.00,,,0.00,WUHU216WMR200,2016-12-08 10:09:00,
2016-12-08 05:14:00,49.6,49.6,30.00,South,180,0.0,0.0,100,0.00,,,0.00,WUHU216WMR200,2016-12-08 10:14:00,
2016-12-08 05:19:00,49.6,49.6,30.00,South,180,0.0,0.0,100,0.00,,,0.00,WUHU216WMR200,2016-12-08 10:19:00,
2016-12-08 05:24:00,49.8,49.8,30.00,South,180,0.0,0.0,100,0.00,,,0.00,WUHU216WMR200,2016-12-08 10:24:00,
2016-12-08 05:29:00,49.8,49.8,30.03,WNW,292,0.0,0.0,100,0.00,,,0.00,WUHU216WMR200,2016-12-08 10:29:00,
2016-12-08 05:34:00,49.8,49.8,30.03,NNW,337,0.0,0.0,100,0.00,,,0.00,WUHU216WMR200,2016-12-08 10:34:00,
2016-12-08 05:39:00,49.6,49.6,30.03,West,270,0.0,0.0,100,0.00,,,0.00,WUHU216WMR200,2016-12-08 10:39:00,
2016-12-08 05:44:00,49.6,49.6,30.00,West,270,0.0,0.0,100,0.00,,,0.00,WUHU216WMR200,2016-12-08 10:44:00,
2016-12-08 05:49:00,49.8,49.8,30.00,WNW,292,0.0,0.0,100,0.00,,,0.00,WUHU216WMR200,2016-12-08 10:49:00,
2016-12-08 05:54:00,49.8,49.8,30.00,WNW,292,0.0,0.0,100,0.00,,,0.00,WUHU216WMR200,2016-12-08 10:54:00,
2016-12-08 05:59:00,49.6,49.6,30.03,WNW,292,0.0,0.0,100,0.00,,,0.00,WUHU216WMR200,2016-12-08 10:59:00,
2016-12-08 06:04:00,49.8,49.8,30.03,WNW,292,0.0,0.0,100,0.00,,,0.00,WUHU216WMR200,2016-12-08 11:04:00,
2016-12-08 06:09:00,49.6,49.6,30.03,WNW,292,0.0,0.0,100,0.00,,,0.00,WUHU216WMR200,2016-12-08 11:09:00,
2016-12-08 06:14:00,49.6,49.6,30.03,WNW,292,0.0,0.0,100,0.00,,,0.00,WUHU216WMR200,2016-12-08 11:14:00,
2016-12-08 06:19:00,49.6,49.6,30.03,West,270,0.0,0.0,100,0.00,,,0.00,WUHU216WMR200,2016-12-08 11:19:00,
2016-12-08 06:24:00,49.6,49.6,30.03,NNW,337,0.0,0.0,100,0.00,,,0.00,WUHU216WMR200,2016-12-08 11:24:00,
2016-12-08 06:29:00,49.6,49.6,30.03,NNW,337,0.0,0.0,100,0.00,,,0.00,WUHU216WMR200,2016-12-08 11:29:00,
2016-12-08 06:34:00,49.6,49.6,30.03,NNW,337,0.0,0.0,100,0.00,,,0.00,WUHU216WMR200,2016-12-08 11:34:00,
2016-12-08 06:39:00,49.5,49.5,30.03,NNW,337,0.0,0.0,100,0.00,,,0.00,WUHU216WMR200,2016-12-08 11:39:00,
2016-12-08 06:44:00,49.5,49.5,30.06,NNW,337,0.0,0.0,100,0.00,,,0.00,WUHU216WMR200,2016-12-08 11:44:00,
2016-12-08 06:49:00,49.5,49.5,30.06,NNW,337,0.0,0.0,100,0.00,,,0.00,WUHU216WMR200,2016-12-08 11:49:00,
2016-12-08 06:54:00,49.5,49.5,30.06,NNW,337,0.0,0.0,100,0.00,,,0.00,WUHU216WMR200,2016-12-08 11:54:00,
2016-12-08 06:59:00,49.5,49.5,30.06,NNW,337,0.0,0.0,100,0.00,,,0.00,WUHU216WMR200,2016-12-08 11:59:00,
2016-12-08 07:04:00,49.5,49.5,30.06,NNW,337,0.0,0.0,100,0.00,,,0.00,WUHU216WMR200,2016-12-08 12:04:00,
2016-12-08 07:09:00,49.5,49.5,30.06,NNW,337,0.0,0.0,100,0.00,,,0.00,WUHU216WMR200,2016-12-08 12:09:00,
2016-12-08 07:14:00,49.3,49.3,30.06,NNW,337,0.0,0.0,100,0.00,,,0.00,WUHU216WMR200,2016-12-08 12:14:00,
2016-12-08 07:19:00,49.3,49.3,30.06,NNW,337,0.0,0.0,100,0.00,,,0.00,WUHU216WMR200,2016-12-08 12:19:00,
2016-12-08 07:24:00,49.3,49.3,30.06,NE,45,0.0,0.0,100,0.00,,,0.00,WUHU216WMR200,2016-12-08 12:24:00,
2016-12-08 07:29:00,49.1,49.1,30.06,NE,45,0.0,0.0,100,0.00,,,0.00,WUHU216WMR200,2016-12-08 12:29:00,
2016-12-08 07:34:00,49.1,49.1,30.06,NE,45,0.0,0.0,100,0.00,,,0.00,WUHU216WMR200,2016-12-08 12:34:00,
2016-12-08 07:39:00,49.1,49.1,30.03,NE,45,0.0,1.8,100,0.00,,,0.00,WUHU216WMR200,2016-12-08 12:39:00,
2016-12-08 07:44:00,49.1,49.1,30.03,NW,315,3.2,4.0,100,0.00,,,0.00,WUHU216WMR200,2016-12-08 12:44:00,
2016-12-08 07:49:00,48.9,48.9,30.03,North,0,5.0,5.0,100,0.00,,,0.00,WUHU216WMR200,2016-12-08 12:49:00,
2016-12-08 07:54:00,48.9,48.9,30.03,NNE,22,4.0,5.4,100,0.00,,,0.00,WUHU216WMR200,2016-12-08 12:54:00,
2016-12-08 07:59:00,48.9,48.9,30.03,North,0,3.2,5.4,100,0.00,,,0.00,WUHU216WMR200,2016-12-08 12:59:00,
2016-12-08 08:04:00,48.9,48.9,30.03,NNE,22,2.2,4.4,100,0.00,,,0.00,WUHU216WMR200,2016-12-08 13:04:00,
2016-12-08 08:09:00,48.7,48.7,30.06,NNE,22,2.6,5.4,100,0.00,,,0.00,WUHU216WMR200,2016-12-08 13:09:00,
2016-12-08 08:14:00,48.7,48.7,30.06,NNE,22,1.8,5.4,100,0.00,,,0.00,WUHU216WMR200,2016-12-08 13:14:00,
2016-12-08 08:19:00,48.6,48.6,30.06,NNE,22,5.4,7.6,100,0.00,,,0.00,WUHU216WMR200,2016-12-08 13:19:00,
2016-12-08 08:24:00,48.6,48.6,30.06,NNE,22,7.2,8.0,100,0.00,,,0.00,WUHU216WMR200,2016-12-08 13:24:00,
2016-12-08 08:29:00,48.7,48.7,30.06,NNE,22,4.4,8.0,100,0.00,,,0.00,WUHU216WMR200,2016-12-08 13:29:00,
2016-12-08 08:34:00,48.7,48.7,30.06,North,0,5.0,7.2,100,0.00,,,0.00,WUHU216WMR200,2016-12-08 13:34:00,
2016-12-08 08:39:00,48.6,48.6,30.09,NNE,22,6.8,9.4,100,0.00,,,0.00,WUHU216WMR200,2016-12-08 13:39:00,
2016-12-08 08:44:00,48.7,48.7,30.09,NE,45,0.0,9.4,100,0.00,,,0.00,WUHU216WMR200,2016-12-08 13:44:00,
2016-12-08 08:49:00,48.6,48.0,30.09,NE,45,5.0,7.6,98,0.00,,,0.00,WUHU216WMR200,2016-12-08 13:49:00,
2016-12-08 08:54:00,48.4,45.3,30.09,NE,45,7.6,9.8,89,0.00,,,0.00,WUHU216WMR200,2016-12-08 13:54:00,
2016-12-08 08:59:00,48.2,43.8,30.09,NE,45,6.2,10.8,85,0.00,,,0.00,WUHU216WMR200,2016-12-08 13:59:00,
2016-12-08 09:05:00,48.2,43.5,30.09,NE,45,6.2,10.8,84,0.00,,,0.00,WUHU216WMR200,2016-12-08 14:05:00,
2016-12-08 09:10:00,48.2,42.1,30.12,NE,45,7.6,9.8,79,0.00,,,0.00,WUHU216WMR200,2016-12-08 14:10:00,
2016-12-08 09:15:00,48.2,41.7,30.12,NNE,22,5.8,9.8,78,0.00,,,0.00,WUHU216WMR200,2016-12-08 14:15:00,
2016-12-08 09:20:00,48.2,42.1,30.12,NNE,22,5.4,9.8,79,0.00,,,0.00,WUHU216WMR200,2016-12-08 14:20:00,
2016-12-08 09:26:00,48.4,41.9,30.12,NNE,22,5.4,8.0,78,0.00,,,0.00,WUHU216WMR200,2016-12-08 14:26:00,
2016-12-08 09:31:00,48.4,42.3,30.12,NNE,22,9.8,9.8,79,0.00,,,0.00,WUHU216WMR200,2016-12-08 14:31:00,
2016-12-08 09:37:00,48.6,41.4,30.12,NNE,22,8.6,9.8,76,0.00,,,0.00,WUHU216WMR200,2016-12-08 14:37:00,
2016-12-08 09:42:00,48.6,41.4,30.12,NE,45,7.6,9.8,76,0.00,,,0.00,WUHU216WMR200,2016-12-08 14:42:00,
2016-12-08 09:47:00,48.4,40.5,30.12,NNE,22,7.2,8.6,74,0.00,,,0.00,WUHU216WMR200,2016-12-08 14:47:00,
2016-12-08 09:52:00,48.6,40.7,30.12,NNE,22,7.2,8.6,74,0.00,,,0.00,WUHU216WMR200,2016-12-08 14:52:00,
2016-12-08 09:57:00,48.7,40.4,30.09,NNE,22,6.2,11.6,73,0.00,,,0.00,WUHU216WMR200,2016-12-08 14:57:00,
2016-12-08 10:02:00,48.7,40.4,30.09,NNE,22,5.4,11.6,73,0.00,,,0.00,WUHU216WMR200,2016-12-08 15:02:00,
2016-12-08 10:08:00,48.9,41.3,30.09,NNW,337,4.0,8.6,75,0.00,,,0.00,WUHU216WMR200,2016-12-08 15:08:00,
2016-12-08 10:13:00,49.1,41.1,30.12,NE,45,7.6,8.6,74,0.00,,,0.00,WUHU216WMR200,2016-12-08 15:13:00,
2016-12-08 10:18:00,49.5,41.5,30.12,NNE,22,5.4,8.6,74,0.00,,,0.00,WUHU216WMR200,2016-12-08 15:18:00,
2016-12-08 10:23:00,49.3,41.0,30.12,NNE,22,5.0,7.6,73,0.00,,,0.00,WUHU216WMR200,2016-12-08 15:23:00,
2016-12-08 10:28:00,49.3,41.0,30.09,NNE,22,6.2,6.8,73,0.00,,,0.00,WUHU216WMR200,2016-12-08 15:28:00,
2016-12-08 10:33:00,48.9,39.8,30.09,NNE,22,7.2,8.6,70,0.00,,,0.00,WUHU216WMR200,2016-12-08 15:33:00,
2016-12-08 10:38:00,48.9,40.2,30.09,North,0,5.0,8.6,72,0.00,,,0.00,WUHU216WMR200,2016-12-08 15:38:00,
2016-12-08 10:43:00,49.1,40.4,30.12,North,0,5.0,7.6,72,0.00,,,0.00,WUHU216WMR200,2016-12-08 15:43:00,
2016-12-08 10:48:00,49.5,41.2,30.12,NE,45,2.2,6.8,73,0.00,,,0.00,WUHU216WMR200,2016-12-08 15:48:00,
2016-12-08 10:53:00,49.6,40.9,30.12,NNE,22,5.8,7.6,72,0.00,,,0.00,WUHU216WMR200,2016-12-08 15:53:00,
2016-12-08 10:58:00,49.8,40.3,30.12,NNE,22,7.2,8.6,69,0.00,,,0.00,WUHU216WMR200,2016-12-08 15:58:00,
2016-12-08 11:03:00,50.0,39.6,30.12,NNE,22,6.8,8.6,67,0.00,,,0.00,WUHU216WMR200,2016-12-08 16:03:00,
2016-12-08 11:08:00,50.2,39.8,30.12,NW,315,7.2,8.0,67,0.00,,,0.00,WUHU216WMR200,2016-12-08 16:08:00,
2016-12-08 11:13:00,50.0,39.2,30.12,NNW,337,5.4,8.0,66,0.00,,,0.00,WUHU216WMR200,2016-12-08 16:13:00,
2016-12-08 11:18:00,50.2,39.0,30.12,NNE,22,8.6,8.6,65,0.00,,,0.00,WUHU216WMR200,2016-12-08 16:18:00,
2016-12-08 11:23:00,50.2,38.1,30.12,NNE,22,8.0,10.8,63,0.00,,,0.00,WUHU216WMR200,2016-12-08 16:23:00,
2016-12-08 11:28:00,50.4,37.3,30.12,NNE,22,13.0,13.0,61,0.00,,,0.00,WUHU216WMR200,2016-12-08 16:28:00,
2016-12-08 11:33:00,50.4,37.3,30.12,North,0,8.6,13.0,61,0.00,,,0.00,WUHU216WMR200,2016-12-08 16:33:00,
2016-12-08 11:38:00,50.5,37.0,30.12,WNW,292,6.2,13.0,59,0.00,,,0.00,WUHU216WMR200,2016-12-08 16:38:00,
2016-12-08 11:43:00,50.2,35.2,30.09,NNE,22,16.2,16.2,56,0.00,,,0.00,WUHU216WMR200,2016-12-08 16:43:00,
2016-12-08 11:48:00,50.4,35.4,30.09,ENE,67,6.2,16.2,56,0.00,,,0.00,WUHU216WMR200,2016-12-08 16:48:00,
2016-12-08 11:53:00,50.4,35.4,30.09,NNW,337,5.4,16.2,56,0.00,,,0.00,WUHU216WMR200,2016-12-08 16:53:00,
2016-12-08 11:58:00,50.4,34.9,30.09,North,0,8.0,13.0,55,0.00,,,0.00,WUHU216WMR200,2016-12-08 16:58:00,
2016-12-08 12:03:00,50.7,34.6,30.09,NNE,22,6.2,11.2,54,0.00,,,0.00,WUHU216WMR200,2016-12-08 17:03:00,
2016-12-08 12:08:00,51.6,35.5,30.09,NNE,22,9.8,11.2,54,0.00,,,0.00,WUHU216WMR200,2016-12-08 17:08:00,
2016-12-08 12:13:00,52.0,35.3,30.12,North,0,4.4,13.0,53,0.00,,,0.00,WUHU216WMR200,2016-12-08 17:13:00,
2016-12-08 12:18:00,52.9,35.1,30.12,NE,45,9.8,13.0,51,0.00,,,0.00,WUHU216WMR200,2016-12-08 17:18:00,
2016-12-08 12:24:00,52.0,32.5,30.12,NE,45,9.8,15.6,47,0.00,,,0.00,WUHU216WMR200,2016-12-08 17:24:00,
2016-12-08 12:29:00,51.3,31.2,30.12,NNE,22,11.2,17.4,46,0.00,,,0.00,WUHU216WMR200,2016-12-08 17:29:00,
2016-12-08 12:34:00,50.7,30.7,30.12,North,0,8.6,17.4,46,0.00,,,0.00,WUHU216WMR200,2016-12-08 17:34:00,
2016-12-08 12:39:00,50.7,30.7,30.12,NNE,22,8.6,12.6,46,0.00,,,0.00,WUHU216WMR200,2016-12-08 17:39:00,
2016-12-08 12:44:00,50.9,30.9,30.12,NNE,22,8.6,12.6,46,0.00,,,0.00,WUHU216WMR200,2016-12-08 17:44:00,
2016-12-08 12:49:00,50.7,30.1,30.12,NE,45,9.0,12.0,45,0.00,,,0.00,WUHU216WMR200,2016-12-08 17:49:00,
2016-12-08 12:54:00,50.9,30.9,30.12,NNE,22,6.8,12.0,46,0.00,,,0.00,WUHU216WMR200,2016-12-08 17:54:00,
2016-12-08 12:59:00,50.5,28.6,30.12,NNE,22,11.6,12.6,43,0.00,,,0.00,WUHU216WMR200,2016-12-08 17:59:00,
2016-12-08 13:04:00,50.4,28.5,30.12,NNE,22,13.8,17.4,43,0.00,,,0.00,WUHU216WMR200,2016-12-08 18:04:00,
2016-12-08 13:09:00,50.0,27.5,30.12,North,0,5.4,17.4,42,0.00,,,0.00,WUHU216WMR200,2016-12-08 18:09:00,
2016-12-08 13:14:00,49.6,27.2,30.12,NNE,22,14.4,17.4,42,0.00,,,0.00,WUHU216WMR200,2016-12-08 18:14:00,
2016-12-08 13:19:00,49.6,27.8,30.12,NNE,22,9.4,15.6,43,0.00,,,0.00,WUHU216WMR200,2016-12-08 18:19:00,
2016-12-08 13:24:00,49.3,26.9,30.12,North,0,8.6,14.4,42,0.00,,,0.00,WUHU216WMR200,2016-12-08 18:24:00,
2016-12-08 13:29:00,49.3,26.9,30.12,North,0,9.4,15.2,42,0.00,,,0.00,WUHU216WMR200,2016-12-08 18:29:00,